Meteo Giornale » Osservazioni meteo Messico » Mexico City-Licenci

ore: 03:44 - Osservazioni Meteo Mexico City-Licenci
Lat. 19° 26' N Lon. 99° 6' W Alt. 2238 metri s.l.m.

molto_nuvoloso America/Mexico_City

15 °C

Molto Nuvoloso

Temp. 24 Ore

14 °C

25 °C

Nord-Ovest

9.3 Km/h

Dew point 10 °C

Umidità 72 %

Visibilità  10 Km

Il sole sorge alle ore 07:13

Il sole tramonta alle ore 20:10

Data e Ora Cielo e Fenomeni T °C DP °C Um. % Pres. hPa Vis. km Vento km/h
Oggi h: 03:44 molto_nuvoloso Molto Nuvoloso 15 10 72 1028 10 NO 9.3
Oggi h: 02:45 molto_nuvoloso Molto Nuvoloso 15 11 76 1028 10 O/NO 11.1
Oggi h: 01:45 molto_nuvoloso Molto Nuvoloso 16 11 72 1028 10 N/NO 13
Oggi h: 00:45 molto_nuvoloso Molto Nuvoloso 16 11 72 1029 10 N/NO 13
Ieri h: 23:45 molto_nuvoloso Molto Nuvoloso 16 12 77 1029 10 N 9.3
Ieri h: 22:46 nuvoloso Nuvoloso 16 12 77 1028 10 O/NO 9.3
Ieri h: 21:50 molto_nuvoloso Molto Nuvoloso 16 13 82 1027 10 O/NO 9.3
Ieri h: 21:14 molto_nuvoloso Molto Nuvoloso 15 13 87 1027 11 O 16.7
Ieri h: 20:56 coperto_pioggia Pioggia Debole 15 13 87 1027 11 O/SO 18.5
Ieri h: 20:42 coperto_pioggia Pioggia Debole 15 12 82 1027 10 SO 18.5
Ieri h: 19:52 nuvoloso_temporali Temporale con Pioggia Debole 16 12 77 1027 10 S/SE 11.1
Ieri h: 19:34 nuvoloso_temporali Temporale con Pioggia Debole 16 12 77 1026 11 E 18.5
Ieri h: 19:22 coperto_temporali Temporale 17 12 72 1026 13 E/NE 25.9
Ieri h: 18:54 coperto Coperto 19 14 72 1025 14 NE 14.8
Ieri h: 17:53 coperto Coperto 20 14 68 1024 13 N 0
Ieri h: 17:49 coperto Coperto 19 14 72 1024 13 N 0
Ieri h: 17:34 coperto_pioggia Pioggia Debole 18 12 67 1024 11 NE 7.4
Ieri h: 17:15 nuvoloso_temporali Temporale con Pioggia Debole 16 14 87 1025 11 NE 11.1
Ieri h: 17:01 nuvoloso_temporali Temporale con Pioggia 17 11 67 1025 10 E/SE 22.2
Ieri h: 16:50 nuvoloso_temporali Temporale con Pioggia Debole 18 12 67 1025 11 E 29.6
Ieri h: 16:48 nuvoloso_temporali Temporale con Pioggia Debole 19 12 63 1025 11 E/NE 25.9
Ieri h: 16:42 nuvoloso_temporali Temporale con Pioggia Debole 21 13 60 1024 13 E 44.4
Ieri h: 16:30 coperto_temporali Temporale 23 8 38 1024 13 NO 18.5
Ieri h: 16:20 molto_nuvoloso Molto Nuvoloso 24 7 33 1024 13 NE 18.5
Ieri h: 15:53 molto_nuvoloso Molto Nuvoloso 25 7 31 1025 14 SO 18.5
Ieri h: 14:55 molto_nuvoloso Molto Nuvoloso 24 8 35 1026 13 S 18.5
Ieri h: 14:52 molto_nuvoloso Molto Nuvoloso 24 8 35 1026 13 S 18.5
Ieri h: 13:40 molto_nuvoloso Molto Nuvoloso 22 8 40 1027 13 N 5.5
Ieri h: 12:51 molto_nuvoloso Molto Nuvoloso 21 8 43 1028 13 N 0
Ieri h: 11:52 molto_nuvoloso Molto Nuvoloso 20 9 49 1029 11 N 5.5
Ieri h: 10:50 molto_nuvoloso Molto Nuvoloso 20 9 49 1030 11 O/NO 9.3
Ieri h: 10:49 molto_nuvoloso Molto Nuvoloso 20 9 49 1030 11 N 5.5
Ieri h: 09:49 molto_nuvoloso Molto Nuvoloso 17 9 59 1029 11 SO 11.1
Ieri h: 08:45 molto_nuvoloso Molto Nuvoloso 16 9 63 1029 10 N 5.5
Ieri h: 07:46 molto_nuvoloso Molto Nuvoloso 15 9 67 1028 11 N/NE 9.3
Ieri h: 06:44 molto_nuvoloso Molto Nuvoloso 14 9 71 1027 13 E 7.4
Ieri h: 05:40 molto_nuvoloso Molto Nuvoloso 15 9 67 1027 11 O/NO 9.3
Ieri h: 04:40 molto_nuvoloso Molto Nuvoloso 16 9 63 1027 13 O 14.8